Terminal Aerodrome Forecast
Issued by NWS

Home | Current Version | Previous Version | Text Only | Print | Product List | Glossary On
Versions: 1 2 3 4 5 6 7 8 9 10 11 12
452
FTUS44 KBMX 280520
TAFMGM
TAF
KMGM 280520Z 2806/2906 09003KT P6SM FEW250
     FM281600 09010KT P6SM SCT050
     FM290100 06003KT P6SM SCT250=

USA.gov is the U.S. government's official web portal to all federal, state and local government web resources and services.